Airport View

Enter AWOS ICAO identifier for current METAR.

ex. KFNL

KBEH 040453Z AUTO VRB05KT 10SM OVC039 18/14 A3002 RMK AO2 SLP161 T01780139 402330156

4 Aug 2020 05:51

Frequency: 121.55

Phone: 269-925-9008

Other Area AWOS: KLWA - KSBN - KEKM - KMGC

TAF KSBN 032320Z 0400/0424 34007KT P6SM BKN040 FM040600 36005KT P6SM BKN020 FM041400 34011KT P6SM SCT040